| time (UTC) | temp F | wind direction | speed knots | gust knots | rain 1hr in | rain 24hr in | rain mn in | humidity % | barometer mb |
| 20260510045024 | 62 | 322 | 0.9 | 0.9 | 0.31 | 0.14 | 0.14 | 91 | 1015.1 |
| 20260510044521 | 62 | 14 | 3.5 | 6.1 | 0.24 | 0.11 | 0.11 | 90 | 1015.5 |
| 20260510044019 | 63 | 105 | 1.7 | 2.6 | 0.28 | 0.09 | 0.09 | 87 | 1015.6 |
| 20260510043514 | 64 | 124 | 0.0 | 0.9 | 0.28 | 0.07 | 0.07 | 83 | 1014.9 |
| 20260510043010 | 65 | 211 | 1.7 | 2.6 | 0.19 | 0.04 | 0.04 | 77 | 1013.8 |
| 20260510042504 | 66 | 314 | 1.7 | 2.6 | 0.14 | 0.02 | 0.02 | 75 | 1013.3 |
| 20260510041959 | 68 | 113 | 0.0 | 0.0 | 0.07 | 0.01 | 0.01 | 74 | 1012.7 |
| 20260510041456 | 69 | 132 | 0.0 | 0.0 | 0.07 | 0.01 | 0.01 | 68 | 1012.5 |
| 20260510040954 | 69 | 146 | 0.9 | 0.9 | 0.00 | 0.00 | 0.00 | 63 | 1012.6 |
| 20260510040450 | 70 | 119 | 0.0 | 0.9 | 0.00 | 0.00 | 0.00 | 61 | 1012.5 |
| 20260510035946 | 70 | 148 | 0.9 | 0.9 | 0.00 | 0.00 | 0.00 | 59 | 1012.0 |
| 20260510035443 | 71 | 132 | 0.0 | 0.0 | 0.00 | 0.00 | 0.00 | 56 | 1011.6 |
| 20260510034942 | 72 | 120 | 0.0 | 0.0 | 0.00 | 0.00 | 0.00 | 56 | 1011.3 |
| 20260510034442 | 73 | 291 | 0.9 | 0.9 | 0.00 | 0.00 | 0.00 | 51 | 1011.0 |
| 20260510033937 | 73 | 326 | 0.9 | 0.9 | 0.00 | 0.00 | 0.00 | 48 | 1010.8 |
| 20260510033433 | 73 | 149 | 0.0 | 0.9 | 0.00 | 0.00 | 0.00 | 49 | 1010.1 |
| 20260510032930 | 73 | 121 | 0.0 | 0.0 | 0.00 | 0.00 | 0.00 | 49 | 1010.0 |
| 20260510032427 | 73 | 101 | 0.0 | 0.0 | 0.00 | 0.00 | 0.00 | 49 | 1010.0 |
| 20260510031922 | 73 | 139 | 0.0 | 0.9 | 0.00 | 0.00 | 0.00 | 49 | 1010.1 |
| 20260510031418 | 73 | 128 | 0.0 | 0.0 | 0.00 | 0.00 | 0.00 | 49 | 1009.7 |
| 20260510030914 | 73 | 140 | 0.9 | 0.9 | 0.00 | 0.00 | 0.00 | 49 | 1009.7 |
| 20260510030410 | 73 | 122 | 0.9 | 0.9 | 0.00 | 0.00 | 0.00 | 49 | 1009.6 |
| 20260510025908 | 73 | 116 | 0.9 | 0.9 | 0.00 | 0.00 | 0.00 | 49 | 1009.3 |
| 20260510025405 | 73 | 133 | 0.0 | 0.0 | 0.00 | 0.00 | 0.00 | 49 | 1009.5 |
| 20260510024902 | 73 | 92 | 0.0 | 0.0 | 0.00 | 0.00 | 0.00 | 48 | 1009.3 |
| 20260510024358 | 73 | 119 | 0.0 | 0.0 | 0.00 | 0.00 | 0.00 | 48 | 1009.4 |
| 20260510023854 | 73 | 110 | 0.0 | 0.0 | 0.00 | 0.00 | 0.00 | 48 | 1009.2 |
| 20260510023351 | 73 | 117 | 0.0 | 0.0 | 0.00 | 0.00 | 0.00 | 47 | 1008.9 |
| 20260510022848 | 73 | 149 | 0.0 | 0.0 | 0.00 | 0.00 | 0.00 | 47 | 1008.9 |
| 20260510022347 | 73 | 124 | 0.0 | 0.0 | 0.00 | 0.00 | 0.00 | 46 | 1008.7 |
| 20260510021846 | 73 | 126 | 0.0 | 0.9 | 0.00 | 0.00 | 0.00 | 45 | 1008.9 |
| 20260510021345 | 73 | 123 | 0.0 | 0.0 | 0.00 | 0.00 | 0.00 | 45 | 1008.9 |
| 20260510020840 | 74 | 121 | 0.0 | 0.0 | 0.00 | 0.00 | 0.00 | 44 | 1008.7 |
| 20260510020335 | 74 | 105 | 0.0 | 0.0 | 0.00 | 0.00 | 0.00 | 44 | 1008.3 |
| 20260510015831 | 74 | 132 | 0.9 | 0.9 | 0.00 | 0.00 | 0.00 | 43 | 1008.0 |
| 20260510015327 | 74 | 121 | 0.0 | 0.0 | 0.00 | 0.00 | 0.00 | 42 | 1007.9 |
| 20260510014822 | 74 | 119 | 0.0 | 0.9 | 0.00 | 0.00 | 0.00 | 42 | 1007.6 |
| 20260510014320 | 75 | 121 | 0.0 | 0.0 | 0.00 | 0.00 | 0.00 | 42 | 1007.7 |
| 20260510013816 | 75 | 126 | 0.0 | 0.0 | 0.00 | 0.00 | 0.00 | 41 | 1007.4 |
| 20260510013312 | 75 | 130 | 0.0 | 0.9 | 0.00 | 0.00 | 0.00 | 42 | 1007.3 |
| 20260510012807 | 75 | 124 | 0.0 | 0.0 | 0.00 | 0.00 | 0.00 | 42 | 1007.2 |
| 20260510012307 | 75 | 131 | 0.0 | 0.0 | 0.00 | 0.00 | 0.00 | 41 | 1007.1 |
| 20260510011801 | 76 | 88 | 0.0 | 0.0 | 0.00 | 0.00 | 0.00 | 41 | 1007.2 |
| 20260510011257 | 77 | 105 | 0.0 | 0.0 | 0.00 | 0.00 | 0.00 | 40 | 1007.2 |
| 20260510010754 | 77 | 15 | 0.9 | 1.7 | 0.00 | 0.00 | 0.00 | 39 | 1007.1 |
| 20260510010250 | 77 | 112 | 0.0 | 0.0 | 0.00 | 0.00 | 0.00 | 39 | 1007.2 |
| 20260510005747 | 78 | 90 | 0.9 | 0.9 | 0.00 | 0.00 | 0.00 | 38 | 1007.0 |
| 20260510005243 | 78 | 128 | 0.0 | 0.0 | 0.00 | 0.00 | 0.00 | 37 | 1007.0 |
| 20260510004742 | 79 | 107 | 0.0 | 0.0 | 0.00 | 0.00 | 0.00 | 37 | 1007.0 |
| 20260510004239 | 80 | 102 | 0.0 | 0.0 | 0.00 | 0.00 | 0.00 | 35 | 1006.9 |
| 20260510003736 | 80 | 125 | 0.0 | 0.0 | 0.00 | 0.00 | 0.00 | 36 | 1006.7 |
| 20260510003232 | 81 | 119 | 0.9 | 1.7 | 0.00 | 0.00 | 0.00 | 34 | 1007.0 |
| 20260510002731 | 82 | 50 | 0.0 | 0.9 | 0.00 | 0.00 | 0.00 | 35 | 1007.1 |
| 20260510002229 | 82 | 140 | 1.7 | 1.7 | 0.00 | 0.00 | 0.00 | 33 | 1007.1 |
| 20260510001725 | 83 | 237 | 0.9 | 1.7 | 0.00 | 0.00 | 0.00 | 32 | 1006.9 |
| 20260510001224 | 83 | 118 | 0.9 | 0.9 | 0.00 | 0.00 | 0.00 | 32 | 1007.0 |
| 20260510000720 | 84 | 167 | 0.9 | 1.7 | 0.00 | 0.00 | 0.00 | 33 | 1006.9 |
| 20260510000218 | 84 | 220 | 1.7 | 2.6 | 0.00 | 0.00 | 0.00 | 33 | 1006.9 |
| 20260509235714 | 84 | 86 | 0.9 | 1.7 | 0.00 | 0.00 | 0.00 | 32 | 1006.7 |
| 20260509235210 | 84 | 158 | 0.9 | 1.7 | 0.00 | 0.00 | 0.00 | 32 | 1006.7 |
| 20260509234706 | 85 | 168 | 0.9 | 1.7 | 0.00 | 0.00 | 0.00 | 32 | 1006.7 |
| 20260509234204 | 86 | 352 | 0.0 | 0.9 | 0.00 | 0.00 | 0.00 | 32 | 1006.7 |
| 20260509233702 | 86 | 161 | 0.9 | 0.9 | 0.00 | 0.00 | 0.00 | 31 | 1006.9 |
| 20260509233159 | 85 | 145 | 0.0 | 0.0 | 0.00 | 0.00 | 0.00 | 31 | 1006.6 |
| 20260509232655 | 85 | 109 | 0.9 | 0.9 | 0.00 | 0.00 | 0.00 | 31 | 1006.9 |
| 20260509232152 | 85 | 142 | 0.9 | 0.9 | 0.00 | 0.00 | 0.00 | 32 | 1006.6 |
| 20260509231649 | 85 | 53 | 1.7 | 3.5 | 0.00 | 0.00 | 0.00 | 31 | 1006.9 |
| 20260509231146 | 84 | 314 | 0.9 | 0.9 | 0.00 | 0.00 | 0.00 | 31 | 1007.1 |
| 20260509230643 | 84 | 130 | 1.7 | 2.6 | 0.00 | 0.00 | 0.00 | 32 | 1007.3 |
| 20260509230140 | 86 | 88 | 0.0 | 0.0 | 0.00 | 0.00 | 0.00 | 33 | 1007.0 |
| 20260509225635 | 87 | 165 | 0.9 | 1.7 | 0.00 | 0.00 | 0.00 | 31 | 1007.1 |
| 20260509225131 | 86 | 136 | 0.0 | 0.9 | 0.00 | 0.00 | 0.00 | 33 | 1006.6 |
| 20260509224627 | 86 | 136 | 0.0 | 0.0 | 0.00 | 0.00 | 0.00 | 35 | 1006.9 |
| 20260509224124 | 86 | 126 | 0.0 | 0.0 | 0.00 | 0.00 | 0.00 | 33 | 1007.1 |
| 20260509223621 | 88 | 104 | 0.9 | 0.9 | 0.00 | 0.00 | 0.00 | 31 | 1007.3 |
| 20260509223118 | 88 | 157 | 0.9 | 0.9 | 0.00 | 0.00 | 0.00 | 31 | 1007.2 |
| 20260509222614 | 87 | 122 | 0.0 | 0.0 | 0.00 | 0.00 | 0.00 | 31 | 1007.2 |
| 20260509222110 | 87 | 153 | 0.0 | 0.9 | 0.00 | 0.00 | 0.00 | 31 | 1006.9 |
| 20260509221606 | 87 | 259 | 1.7 | 2.6 | 0.00 | 0.00 | 0.00 | 31 | 1007.0 |
| 20260509221102 | 88 | 156 | 0.9 | 1.7 | 0.00 | 0.00 | 0.00 | 30 | 1007.0 |
| 20260509220558 | 89 | 167 | 2.6 | 3.5 | 0.00 | 0.00 | 0.00 | 29 | 1007.1 |
| 20260509220055 | 89 | 146 | 0.0 | 0.9 | 0.00 | 0.00 | 0.00 | 31 | 1007.0 |
| 20260509215550 | 88 | 127 | 0.9 | 1.7 | 0.00 | 0.00 | 0.00 | 28 | 1007.3 |
| 20260509215048 | 89 | 136 | 0.0 | 0.0 | 0.00 | 0.00 | 0.00 | 30 | 1007.1 |
| 20260509214545 | 88 | 146 | 0.0 | 0.0 | 0.00 | 0.00 | 0.00 | 29 | 1007.2 |
| 20260509214042 | 88 | 147 | 1.7 | 1.7 | 0.00 | 0.00 | 0.00 | 28 | 1007.2 |
| 20260509213538 | 89 | 124 | 0.9 | 1.7 | 0.00 | 0.00 | 0.00 | 33 | 1007.7 |
| 20260509213035 | 89 | 149 | 0.0 | 0.9 | 0.00 | 0.00 | 0.00 | 30 | 1007.3 |
| 20260509212532 | 88 | 108 | 0.9 | 0.9 | 0.00 | 0.00 | 0.00 | 30 | 1007.4 |
| 20260509212029 | 89 | 126 | 0.0 | 0.0 | 0.00 | 0.00 | 0.00 | 32 | 1007.5 |
| 20260509211524 | 89 | 132 | 0.0 | 0.0 | 0.00 | 0.00 | 0.00 | 28 | 1007.5 |
| 20260509211021 | 88 | 217 | 1.7 | 1.7 | 0.00 | 0.00 | 0.00 | 28 | 1007.7 |
| 20260509210518 | 89 | 144 | 0.9 | 1.7 | 0.00 | 0.00 | 0.00 | 28 | 1007.7 |
| 20260509210015 | 88 | 124 | 0.0 | 0.0 | 0.00 | 0.00 | 0.00 | 33 | 1007.7 |
| 20260509205508 | 88 | 60 | 1.7 | 1.7 | 0.00 | 0.00 | 0.00 | 32 | 1007.9 |
| 20260509205004 | 89 | 125 | 0.9 | 0.9 | 0.00 | 0.00 | 0.00 | 31 | 1007.9 |
| 20260509204501 | 88 | 140 | 0.0 | 0.0 | 0.00 | 0.00 | 0.00 | 31 | 1008.1 |
| 20260509203957 | 88 | 143 | 1.7 | 1.7 | 0.00 | 0.00 | 0.00 | 31 | 1008.0 |
| 20260509203453 | 88 | 140 | 1.7 | 1.7 | 0.00 | 0.00 | 0.00 | 31 | 1007.9 |
| 20260509202951 | 87 | 138 | 0.9 | 0.9 | 0.00 | 0.00 | 0.00 | 31 | 1008.1 |
| 20260509202447 | 87 | 77 | 1.7 | 1.7 | 0.00 | 0.00 | 0.00 | 31 | 1008.0 |
| 20260509201942 | 88 | 127 | 0.9 | 1.7 | 0.00 | 0.00 | 0.00 | 29 | 1008.3 |
| 20260509201437 | 88 | 104 | 0.9 | 0.9 | 0.00 | 0.00 | 0.00 | 28 | 1008.5 |
| 20260509200935 | 87 | 187 | 0.9 | 0.9 | 0.00 | 0.00 | 0.00 | 30 | 1008.4 |
| 20260509200434 | 87 | 357 | 0.0 | 0.9 | 0.00 | 0.00 | 0.00 | 30 | 1008.3 |
| 20260509195931 | 87 | 142 | 0.9 | 1.7 | 0.00 | 0.00 | 0.00 | 31 | 1008.6 |
| 20260509195427 | 87 | 130 | 4.3 | 7.0 | 0.00 | 0.00 | 0.00 | 30 | 1008.8 |
| 20260509194926 | 87 | 20 | 0.9 | 1.7 | 0.00 | 0.00 | 0.00 | 32 | 1008.8 |
| 20260509194422 | 87 | 131 | 0.0 | 0.0 | 0.00 | 0.00 | 0.00 | 29 | 1008.7 |
| 20260509193920 | 87 | 117 | 0.0 | 0.0 | 0.00 | 0.00 | 0.00 | 33 | 1009.0 |
| 20260509193419 | 86 | 117 | 0.0 | 0.0 | 0.00 | 0.00 | 0.00 | 28 | 1009.0 |
| 20260509192916 | 86 | 182 | 0.9 | 0.9 | 0.00 | 0.00 | 0.00 | 28 | 1008.7 |
| 20260509192412 | 86 | 132 | 0.9 | 0.9 | 0.00 | 0.00 | 0.00 | 27 | 1009.0 |
| 20260509191907 | 86 | 127 | 0.0 | 0.9 | 0.00 | 0.00 | 0.00 | 32 | 1008.9 |
| 20260509191403 | 86 | 155 | 0.9 | 1.7 | 0.00 | 0.00 | 0.00 | 33 | 1008.9 |
| 20260509190859 | 86 | 145 | 1.7 | 1.7 | 0.00 | 0.00 | 0.00 | 35 | 1009.0 |
| 20260509190356 | 86 | 123 | 0.0 | 0.9 | 0.00 | 0.00 | 0.00 | 36 | 1009.0 |
| 20260509185854 | 86 | 196 | 0.9 | 1.7 | 0.00 | 0.00 | 0.00 | 34 | 1009.0 |
| 20260509185350 | 85 | 117 | 0.0 | 0.0 | 0.00 | 0.00 | 0.00 | 30 | 1008.9 |
| 20260509184847 | 86 | 152 | 0.0 | 0.9 | 0.00 | 0.00 | 0.00 | 34 | 1009.3 |
| 20260509184344 | 86 | 111 | 0.9 | 1.7 | 0.00 | 0.00 | 0.00 | 32 | 1009.3 |
| 20260509183841 | 85 | 111 | 0.9 | 0.9 | 0.00 | 0.00 | 0.00 | 31 | 1009.2 |
| 20260509183336 | 86 | 119 | 0.0 | 0.9 | 0.00 | 0.00 | 0.00 | 34 | 1009.3 |
| 20260509182832 | 86 | 152 | 0.9 | 0.9 | 0.00 | 0.00 | 0.00 | 31 | 1009.6 |
| 20260509182330 | 86 | 70 | 0.9 | 1.7 | 0.00 | 0.00 | 0.00 | 30 | 1009.7 |
| 20260509181827 | 86 | 77 | 0.9 | 0.9 | 0.00 | 0.00 | 0.00 | 34 | 1009.5 |
| 20260509181324 | 86 | 125 | 0.9 | 0.9 | 0.00 | 0.00 | 0.00 | 36 | 1009.8 |
| 20260509180821 | 85 | 111 | 0.0 | 0.9 | 0.00 | 0.00 | 0.00 | 36 | 1009.6 |
| 20260509180317 | 86 | 14 | 1.7 | 1.7 | 0.00 | 0.00 | 0.00 | 32 | 1010.0 |
| 20260509175814 | 86 | 138 | 0.0 | 0.0 | 0.00 | 0.00 | 0.00 | 33 | 1009.9 |
| 20260509175311 | 85 | 117 | 0.9 | 1.7 | 0.00 | 0.00 | 0.00 | 38 | 1009.9 |
| 20260509174807 | 85 | 72 | 0.0 | 0.0 | 0.00 | 0.00 | 0.00 | 37 | 1010.0 |
| 20260509174302 | 84 | 62 | 0.9 | 0.9 | 0.00 | 0.00 | 0.00 | 35 | 1009.9 |
| 20260509173758 | 84 | 130 | 0.9 | 1.7 | 0.00 | 0.00 | 0.00 | 38 | 1009.9 |
| 20260509173254 | 83 | 94 | 0.9 | 0.9 | 0.00 | 0.00 | 0.00 | 40 | 1010.0 |
| 20260509172750 | 81 | 117 | 0.0 | 0.0 | 0.00 | 0.00 | 0.00 | 38 | 1010.1 |
| 20260509172247 | 81 | 135 | 0.0 | 0.9 | 0.00 | 0.00 | 0.00 | 37 | 1010.1 |
| 20260509171742 | 81 | 117 | 0.9 | 0.9 | 0.00 | 0.00 | 0.00 | 37 | 1010.0 |
| 20260509171239 | 81 | 111 | 0.0 | 0.0 | 0.00 | 0.00 | 0.00 | 40 | 1010.0 |
| 20260509170736 | 81 | 124 | 0.0 | 0.9 | 0.00 | 0.00 | 0.00 | 39 | 1010.4 |
| 20260509170231 | 81 | 139 | 0.0 | 0.9 | 0.00 | 0.00 | 0.00 | 40 | 1010.3 |
| 20260509165730 | 83 | 97 | 0.0 | 0.9 | 0.00 | 0.00 | 0.00 | 37 | 1010.3 |
| 20260509165225 | 82 | 122 | 0.0 | 0.9 | 0.00 | 0.00 | 0.00 | 40 | 1010.5 |
| 20260509164722 | 85 | 138 | 1.7 | 1.7 | 0.00 | 0.00 | 0.00 | 36 | 1010.4 |
| 20260509164217 | 84 | 75 | 0.9 | 1.7 | 0.00 | 0.00 | 0.00 | 40 | 1010.8 |
| 20260509163715 | 84 | 114 | 0.9 | 0.9 | 0.00 | 0.00 | 0.00 | 42 | 1010.8 |
| 20260509163211 | 83 | 111 | 0.0 | 0.9 | 0.00 | 0.00 | 0.00 | 36 | 1010.8 |
| 20260509162709 | 83 | 117 | 0.0 | 0.9 | 0.00 | 0.00 | 0.00 | 39 | 1010.8 |
| 20260509162204 | 82 | 151 | 1.7 | 2.6 | 0.00 | 0.00 | 0.00 | 40 | 1010.5 |
| 20260509161700 | 82 | 103 | 0.0 | 0.9 | 0.00 | 0.00 | 0.00 | 53 | 1010.7 |
| 20260509161156 | 82 | 82 | 0.0 | 0.9 | 0.00 | 0.00 | 0.00 | 48 | 1010.7 |
| 20260509160652 | 82 | 123 | 0.9 | 0.9 | 0.00 | 0.00 | 0.00 | 53 | 1010.8 |
| 20260509160148 | 82 | 126 | 0.9 | 0.9 | 0.00 | 0.00 | 0.00 | 50 | 1010.7 |
| 20260509155644 | 82 | 117 | 0.0 | 0.0 | 0.00 | 0.00 | 0.00 | 48 | 1010.5 |
| 20260509155140 | 81 | 117 | 0.9 | 0.9 | 0.00 | 0.00 | 0.00 | 50 | 1010.5 |
| 20260509154636 | 81 | 160 | 0.0 | 0.0 | 0.00 | 0.00 | 0.00 | 48 | 1010.5 |
| 20260509154133 | 80 | 94 | 0.0 | 0.0 | 0.00 | 0.00 | 0.00 | 50 | 1010.4 |
| 20260509153630 | 80 | 130 | 0.0 | 0.9 | 0.00 | 0.00 | 0.00 | 52 | 1010.2 |
| 20260509153127 | 80 | 101 | 0.0 | 0.0 | 0.00 | 0.00 | 0.00 | 57 | 1010.2 |
| 20260509152623 | 79 | 109 | 0.0 | 0.9 | 0.00 | 0.00 | 0.00 | 57 | 1010.3 |
| 20260509152120 | 79 | 133 | 0.0 | 0.0 | 0.00 | 0.00 | 0.00 | 62 | 1010.0 |
| 20260509151616 | 78 | 115 | 0.0 | 0.0 | 0.00 | 0.00 | 0.00 | 62 | 1010.1 |
| 20260509151114 | 78 | 140 | 0.0 | 0.9 | 0.00 | 0.00 | 0.00 | 61 | 1010.2 |
| 20260509150612 | 77 | 109 | 0.0 | 0.9 | 0.00 | 0.00 | 0.00 | 64 | 1010.2 |
| 20260509150110 | 77 | 99 | 0.0 | 0.0 | 0.00 | 0.00 | 0.00 | 65 | 1010.3 |
| 20260509145605 | 77 | 117 | 0.0 | 0.0 | 0.00 | 0.00 | 0.00 | 64 | 1010.2 |
| 20260509145101 | 76 | 123 | 0.9 | 0.9 | 0.00 | 0.00 | 0.00 | 66 | 1010.0 |
| 20260509144558 | 75 | 123 | 0.0 | 0.0 | 0.00 | 0.00 | 0.00 | 70 | 1010.0 |
| 20260509144055 | 74 | 116 | 0.0 | 0.0 | 0.00 | 0.00 | 0.00 | 73 | 1010.1 |
| 20260509143552 | 71 | 83 | 0.0 | 0.0 | 0.00 | 0.00 | 0.00 | 77 | 1010.0 |
| 20260509143050 | 71 | 124 | 0.0 | 0.0 | 0.00 | 0.00 | 0.00 | 80 | 1010.1 |
| 20260509142545 | 69 | 92 | 0.0 | 0.0 | 0.00 | 0.00 | 0.00 | 86 | 1010.2 |
| 20260509142041 | 67 | 42 | 0.0 | 0.0 | 0.00 | 0.00 | 0.00 | 92 | 1009.9 |
| 20260509141537 | 66 | 122 | 0.0 | 0.0 | 0.00 | 0.00 | 0.00 | 94 | 1009.8 |
| 20260509141034 | 65 | 116 | 0.0 | 0.0 | 0.00 | 0.00 | 0.00 | 99 | 1010.1 |
| 20260509140531 | 64 | 107 | 0.0 | 0.0 | 0.00 | 0.00 | 0.00 | 99 | 1010.0 |
| 20260509140029 | 64 | 107 | 0.0 | 0.0 | 0.00 | 0.00 | 0.00 | 99 | 1010.0 |
| 20260509135526 | 62 | 107 | 0.0 | 0.0 | 0.00 | 0.00 | 0.00 | 99 | 1010.2 |
| 20260509135023 | 61 | 92 | 0.0 | 0.0 | 0.00 | 0.00 | 0.00 | 99 | 1010.1 |
| 20260509134520 | 61 | 92 | 0.0 | 0.0 | 0.00 | 0.00 | 0.00 | 99 | 1009.8 |
| 20260509134018 | 60 | 92 | 0.0 | 0.0 | 0.00 | 0.00 | 0.00 | 99 | 1010.0 |
| 20260509133514 | 59 | 92 | 0.0 | 0.0 | 0.00 | 0.00 | 0.00 | 99 | 1010.2 |
| 20260509133012 | 59 | 75 | 0.0 | 0.0 | 0.00 | 0.00 | 0.00 | 99 | 1010.2 |
| 20260509132511 | 58 | 75 | 0.0 | 0.0 | 0.00 | 0.00 | 0.00 | 99 | 1010.2 |
| 20260509132008 | 57 | 74 | 0.0 | 0.0 | 0.00 | 0.00 | 0.00 | 99 | 1010.1 |
| 20260509131504 | 57 | 74 | 0.0 | 0.0 | 0.00 | 0.00 | 0.00 | 99 | 1010.1 |
| 20260509131001 | 56 | 74 | 0.0 | 0.0 | 0.00 | 0.00 | 0.00 | 99 | 1010.1 |
| 20260509130456 | 56 | 74 | 0.0 | 0.0 | 0.00 | 0.00 | 0.00 | 99 | 1010.0 |
| 20260509125954 | 55 | 74 | 0.0 | 0.0 | 0.00 | 0.00 | 0.00 | 99 | 1009.9 |
| 20260509125450 | 54 | 74 | 0.0 | 0.0 | 0.00 | 0.00 | 0.00 | 99 | 1009.8 |
| 20260509124946 | 54 | 74 | 0.0 | 0.0 | 0.00 | 0.00 | 0.00 | 99 | 1009.8 |
| 20260509124443 | 53 | 74 | 0.0 | 0.0 | 0.00 | 0.00 | 0.00 | 99 | 1009.7 |
| 20260509123940 | 53 | 74 | 0.0 | 0.0 | 0.00 | 0.00 | 0.00 | 99 | 1009.8 |
| 20260509123438 | 53 | 74 | 0.0 | 0.0 | 0.00 | 0.00 | 0.00 | 99 | 1009.6 |
| 20260509122934 | 52 | 73 | 0.0 | 0.0 | 0.00 | 0.00 | 0.00 | 99 | 1009.6 |
| 20260509122431 | 51 | 95 | 0.0 | 0.0 | 0.00 | 0.00 | 0.00 | 99 | 1009.4 |
| 20260509121927 | 51 | 115 | 0.0 | 0.0 | 0.00 | 0.00 | 0.00 | 99 | 1009.5 |
| 20260509121424 | 51 | 116 | 0.0 | 0.0 | 0.00 | 0.00 | 0.00 | 99 | 1009.4 |
| 20260509120923 | 51 | 116 | 0.0 | 0.0 | 0.00 | 0.00 | 0.00 | 99 | 1009.2 |
| 20260509120420 | 51 | 107 | 0.0 | 0.0 | 0.00 | 0.00 | 0.00 | 99 | 1009.1 |
| 20260509115918 | 51 | 107 | 0.0 | 0.0 | 0.00 | 0.00 | 0.00 | 99 | 1009.4 |
| 20260509115415 | 51 | 107 | 0.0 | 0.0 | 0.00 | 0.00 | 0.00 | 99 | 1009.3 |
| 20260509114912 | 51 | 107 | 0.0 | 0.0 | 0.00 | 0.00 | 0.00 | 99 | 1009.2 |
| 20260509114411 | 52 | 107 | 0.0 | 0.0 | 0.00 | 0.00 | 0.00 | 99 | 1009.3 |
| 20260509113910 | 51 | 107 | 0.0 | 0.0 | 0.00 | 0.00 | 0.00 | 99 | 1009.3 |
| 20260509113407 | 51 | 108 | 0.0 | 0.0 | 0.00 | 0.00 | 0.00 | 99 | 1009.2 |
| 20260509112903 | 51 | 91 | 0.0 | 0.0 | 0.00 | 0.00 | 0.00 | 99 | 1009.0 |
| 20260509112401 | 51 | 91 | 0.0 | 0.0 | 0.00 | 0.00 | 0.00 | 99 | 1008.9 |
| 20260509111858 | 51 | 91 | 0.0 | 0.0 | 0.00 | 0.00 | 0.00 | 99 | 1009.0 |
| 20260509111354 | 51 | 91 | 0.0 | 0.0 | 0.00 | 0.00 | 0.00 | 99 | 1009.1 |
| 20260509110852 | 51 | 91 | 0.0 | 0.0 | 0.00 | 0.00 | 0.00 | 99 | 1009.1 |
| 20260509110348 | 51 | 91 | 0.0 | 0.0 | 0.00 | 0.00 | 0.00 | 99 | 1008.9 |
| 20260509105847 | 51 | 91 | 0.0 | 0.0 | 0.00 | 0.00 | 0.00 | 99 | 1008.9 |
| 20260509105345 | 51 | 91 | 0.0 | 0.0 | 0.00 | 0.00 | 0.00 | 99 | 1009.0 |
| 20260509104841 | 51 | 91 | 0.0 | 0.0 | 0.00 | 0.00 | 0.00 | 99 | 1009.0 |
| 20260509104337 | 51 | 91 | 0.0 | 0.0 | 0.00 | 0.00 | 0.00 | 99 | 1009.1 |
| 20260509103835 | 51 | 91 | 0.0 | 0.0 | 0.00 | 0.00 | 0.00 | 99 | 1009.1 |
| 20260509103332 | 51 | 91 | 0.0 | 0.0 | 0.00 | 0.00 | 0.00 | 99 | 1009.4 |
| 20260509102831 | 51 | 91 | 0.0 | 0.0 | 0.00 | 0.00 | 0.00 | 99 | 1009.3 |
| 20260509102328 | 51 | 91 | 0.0 | 0.0 | 0.00 | 0.00 | 0.00 | 99 | 1008.8 |
| 20260509101824 | 52 | 91 | 0.0 | 0.0 | 0.00 | 0.00 | 0.00 | 99 | 1009.3 |
| 20260509101320 | 52 | 91 | 0.0 | 0.0 | 0.00 | 0.00 | 0.00 | 99 | 1009.4 |
| 20260509100818 | 52 | 91 | 0.0 | 0.0 | 0.00 | 0.00 | 0.00 | 99 | 1009.2 |
| 20260509100315 | 52 | 91 | 0.0 | 0.0 | 0.00 | 0.00 | 0.00 | 99 | 1009.3 |
| 20260509095811 | 52 | 91 | 0.0 | 0.0 | 0.00 | 0.00 | 0.00 | 99 | 1009.4 |
| 20260509095309 | 52 | 91 | 0.0 | 0.0 | 0.00 | 0.00 | 0.00 | 99 | 1009.2 |
| 20260509094806 | 52 | 91 | 0.0 | 0.0 | 0.00 | 0.00 | 0.00 | 99 | 1009.3 |
| 20260509094302 | 52 | 91 | 0.0 | 0.0 | 0.00 | 0.00 | 0.00 | 99 | 1009.1 |
| 20260509093800 | 53 | 90 | 0.0 | 0.0 | 0.00 | 0.00 | 0.00 | 99 | 1009.4 |
| 20260509093257 | 53 | 90 | 0.0 | 0.0 | 0.00 | 0.00 | 0.00 | 99 | 1009.5 |
| 20260509092756 | 52 | 90 | 0.0 | 0.0 | 0.00 | 0.00 | 0.00 | 99 | 1009.5 |
| 20260509092253 | 53 | 90 | 0.0 | 0.0 | 0.00 | 0.00 | 0.00 | 99 | 1009.3 |
| 20260509091751 | 53 | 90 | 0.0 | 0.0 | 0.00 | 0.00 | 0.00 | 99 | 1009.4 |
| 20260509091247 | 53 | 90 | 0.0 | 0.0 | 0.00 | 0.00 | 0.00 | 99 | 1009.7 |
| 20260509090745 | 53 | 90 | 0.0 | 0.0 | 0.00 | 0.00 | 0.00 | 99 | 1009.5 |
| 20260509090242 | 53 | 90 | 0.0 | 0.0 | 0.00 | 0.00 | 0.00 | 99 | 1009.7 |
| 20260509085740 | 53 | 90 | 0.0 | 0.0 | 0.00 | 0.00 | 0.00 | 99 | 1009.5 |
| 20260509085237 | 53 | 90 | 0.0 | 0.0 | 0.00 | 0.00 | 0.00 | 99 | 1009.5 |
| 20260509084733 | 53 | 90 | 0.0 | 0.0 | 0.00 | 0.00 | 0.00 | 99 | 1009.4 |
| 20260509084230 | 53 | 90 | 0.0 | 0.0 | 0.00 | 0.00 | 0.00 | 99 | 1009.7 |
| 20260509083728 | 53 | 90 | 0.0 | 0.0 | 0.00 | 0.00 | 0.00 | 99 | 1009.9 |
| 20260509083225 | 53 | 90 | 0.0 | 0.0 | 0.00 | 0.00 | 0.00 | 99 | 1009.9 |
| 20260509082721 | 54 | 90 | 0.0 | 0.0 | 0.00 | 0.00 | 0.00 | 99 | 1009.5 |
| 20260509082218 | 54 | 90 | 0.0 | 0.0 | 0.00 | 0.00 | 0.00 | 99 | 1009.8 |
| 20260509081714 | 54 | 90 | 0.0 | 0.0 | 0.00 | 0.00 | 0.00 | 99 | 1009.8 |
| 20260509081212 | 54 | 91 | 0.0 | 0.0 | 0.00 | 0.00 | 0.00 | 99 | 1009.6 |
| 20260509080710 | 55 | 90 | 0.0 | 0.0 | 0.00 | 0.00 | 0.00 | 99 | 1009.9 |
| 20260509080208 | 55 | 90 | 0.0 | 0.0 | 0.00 | 0.00 | 0.00 | 99 | 1009.8 |
| 20260509075706 | 55 | 90 | 0.0 | 0.0 | 0.00 | 0.00 | 0.00 | 99 | 1010.0 |
| 20260509075203 | 55 | 90 | 0.0 | 0.0 | 0.00 | 0.00 | 0.00 | 99 | 1009.9 |
| 20260509074700 | 55 | 91 | 0.0 | 0.0 | 0.00 | 0.00 | 0.00 | 98 | 1010.2 |
| 20260509074156 | 55 | 90 | 0.0 | 0.0 | 0.00 | 0.00 | 0.00 | 98 | 1010.1 |
| 20260509073653 | 55 | 90 | 0.0 | 0.0 | 0.00 | 0.00 | 0.00 | 98 | 1010.0 |
| 20260509073149 | 56 | 91 | 0.0 | 0.0 | 0.00 | 0.00 | 0.00 | 98 | 1009.9 |
| 20260509072646 | 56 | 52 | 0.0 | 0.0 | 0.00 | 0.00 | 0.00 | 98 | 1010.2 |
| 20260509072143 | 56 | 80 | 0.0 | 0.0 | 0.00 | 0.00 | 0.00 | 98 | 1010.2 |
| 20260509071640 | 56 | 80 | 0.0 | 0.0 | 0.00 | 0.00 | 0.00 | 98 | 1010.1 |
| 20260509071137 | 56 | 80 | 0.0 | 0.0 | 0.00 | 0.00 | 0.00 | 98 | 1010.0 |
| 20260509070634 | 56 | 101 | 0.0 | 0.0 | 0.00 | 0.00 | 0.00 | 98 | 1010.0 |
| 20260509070130 | 57 | 101 | 0.0 | 0.0 | 0.00 | 0.00 | 0.00 | 98 | 1010.0 |
| 20260509065626 | 56 | 81 | 0.0 | 0.0 | 0.00 | 0.00 | 0.00 | 98 | 1009.8 |
| 20260509065123 | 56 | 131 | 0.0 | 0.0 | 0.00 | 0.00 | 0.00 | 98 | 1010.0 |
| 20260509064620 | 56 | 131 | 0.0 | 0.0 | 0.00 | 0.00 | 0.00 | 98 | 1009.9 |
| 20260509064118 | 57 | 131 | 0.0 | 0.0 | 0.00 | 0.00 | 0.00 | 98 | 1009.8 |
| 20260509063614 | 56 | 131 | 0.0 | 0.0 | 0.00 | 0.00 | 0.00 | 98 | 1009.9 |
| 20260509063111 | 56 | 131 | 0.0 | 0.0 | 0.00 | 0.00 | 0.00 | 98 | 1009.9 |
| 20260509062608 | 56 | 131 | 0.0 | 0.0 | 0.00 | 0.00 | 0.00 | 98 | 1009.7 |
| 20260509062105 | 56 | 131 | 0.0 | 0.0 | 0.00 | 0.00 | 0.00 | 98 | 1009.8 |
| 20260509061602 | 56 | 131 | 0.0 | 0.0 | 0.00 | 0.00 | 0.00 | 98 | 1010.0 |
| 20260509061059 | 56 | 131 | 0.0 | 0.0 | 0.00 | 0.00 | 0.00 | 97 | 1009.8 |
| 20260509060557 | 57 | 131 | 0.0 | 0.0 | 0.00 | 0.00 | 0.00 | 97 | 1010.0 |
| 20260509060052 | 57 | 131 | 0.0 | 0.0 | 0.00 | 0.00 | 0.00 | 97 | 1009.8 |
| 20260509055548 | 57 | 131 | 0.0 | 0.0 | 0.00 | 0.00 | 0.00 | 97 | 1009.9 |
| 20260509055044 | 57 | 131 | 0.0 | 0.0 | 0.00 | 0.00 | 0.00 | 97 | 1010.0 |
| 20260509054541 | 57 | 131 | 0.0 | 0.0 | 0.00 | 0.00 | 0.00 | 97 | 1009.9 |
| 20260509054039 | 58 | 131 | 0.0 | 0.0 | 0.00 | 0.00 | 0.00 | 97 | 1009.7 |
| 20260509053537 | 58 | 131 | 0.0 | 0.0 | 0.00 | 0.00 | 0.00 | 97 | 1009.9 |
| 20260509053034 | 58 | 131 | 0.0 | 0.0 | 0.00 | 0.00 | 0.00 | 97 | 1010.0 |
| 20260509052532 | 58 | 130 | 0.0 | 0.0 | 0.00 | 0.00 | 0.00 | 97 | 1010.0 |
| 20260509052030 | 58 | 130 | 0.0 | 0.0 | 0.00 | 0.00 | 0.00 | 96 | 1010.0 |
| 20260509051527 | 59 | 130 | 0.0 | 0.0 | 0.00 | 0.00 | 0.00 | 96 | 1010.2 |
| 20260509051024 | 59 | 130 | 0.0 | 0.0 | 0.00 | 0.00 | 0.00 | 96 | 1009.9 |
| 20260509050521 | 59 | 130 | 0.0 | 0.0 | 0.00 | 0.00 | 0.00 | 96 | 1010.1 |
| 20260509050017 | 59 | 130 | 0.0 | 0.0 | 0.00 | 0.00 | 0.00 | 96 | 1010.2 |
| 20260509045515 | 59 | 130 | 0.0 | 0.0 | 0.00 | 0.00 | 0.00 | 96 | 1010.2 |